Time;durP1;ratioP1;P1;durP2;ratioP2;P2;SDS_P1;SDS_P2;PMS_P1;PMS_P2;Temp;Humidity;BMP_temperature;BMP_pressure;BME280_temperature;BME280_humidity;BME280_pressure;Samples;Min_cycle;Max_cycle;Signal;HPM_P1;HPM_P2
2021/07/05 00:01:52;;;;;;;15.03;11.40;;;;;;;16.51;74.22;99986.96;1633708;87;21083;-70
2021/07/05 00:04:18;;;;;;;16.35;12.35;;;;;;;16.52;74.28;99986.45;1634050;87;21614;-70
2021/07/05 00:06:44;;;;;;;17.00;11.88;;;;;;;16.50;74.34;99979.41;1634314;87;21539;-70
2021/07/05 00:09:10;;;;;;;16.37;13.03;;;;;;;16.51;74.39;99981.58;1634218;87;21868;-70
2021/07/05 00:11:37;;;;;;;18.30;13.93;;;;;;;16.48;74.42;99977.46;1613098;87;47890;-70
2021/07/05 00:14:03;;;;;;;16.20;13.03;;;;;;;16.42;74.46;99979.69;1633552;87;21086;-70
2021/07/05 00:16:29;;;;;;;14.15;12.50;;;;;;;16.39;74.50;99985.52;1634376;87;21031;-70
2021/07/05 00:18:55;;;;;;;14.73;12.65;;;;;;;16.29;74.50;99978.41;1634347;87;21115;-70
2021/07/05 00:21:23;;;;;;;16.05;12.10;;;;;;;16.21;74.56;99977.86;1634157;87;21110;-70
2021/07/05 00:23:49;;;;;;;15.55;11.48;;;;;;;16.13;74.62;99977.59;1633762;87;21470;-70
2021/07/05 00:26:15;;;;;;;17.15;11.85;;;;;;;16.08;74.70;99976.06;1634310;87;21100;-70
2021/07/05 00:28:41;;;;;;;13.80;11.75;;;;;;;16.05;74.75;99973.80;1634276;87;21083;-70
2021/07/05 00:31:07;;;;;;;14.10;11.95;;;;;;;16.02;74.79;99978.27;1633848;87;21050;-70
2021/07/05 00:33:36;;;;;;;18.32;13.48;;;;;;;15.96;74.85;99971.91;1634144;87;21050;-70
2021/07/05 00:36:01;;;;;;;16.62;13.35;;;;;;;15.90;74.86;99974.63;1634252;86;21376;-70
2021/07/05 00:38:27;;;;;;;16.27;13.32;;;;;;;15.84;74.93;99971.44;1634146;87;21078;-70
2021/07/05 00:40:53;;;;;;;15.72;12.68;;;;;;;15.76;75.01;99977.08;1634373;87;21019;-70
2021/07/05 00:43:19;;;;;;;15.53;13.55;;;;;;;15.69;75.05;99973.59;1634195;87;21085;-70
2021/07/05 00:45:45;;;;;;;17.62;11.97;;;;;;;15.66;75.13;99976.68;1634389;87;21164;-70
2021/07/05 00:48:11;;;;;;;15.00;12.80;;;;;;;15.60;75.18;99968.96;1633704;87;21570;-70
2021/07/05 00:50:37;;;;;;;13.22;11.80;;;;;;;15.57;75.22;99969.91;1634094;87;21659;-70
2021/07/05 00:53:04;;;;;;;14.38;12.18;;;;;;;15.54;75.26;99971.67;1633713;87;21218;-70
2021/07/05 00:55:32;;;;;;;13.58;11.22;;;;;;;15.51;75.33;99973.45;1634249;87;21110;-70
2021/07/05 00:57:58;;;;;;;16.32;12.53;;;;;;;15.48;75.39;99972.82;1634175;87;21913;-70
2021/07/05 01:33:55;;;;;;;15.93;13.48;;;;;;;15.06;76.00;99972.51;1799064;79;22727;-70
2021/07/05 01:36:22;;;;;;;22.67;13.30;;;;;;;15.01;76.08;99977.16;1725488;83;20998;-70
2021/07/05 01:38:52;;;;;;;16.10;13.60;;;;;;;14.95;76.05;99983.37;1724903;83;21824;-70
2021/07/05 01:41:18;;;;;;;15.98;13.22;;;;;;;14.88;76.14;99982.00;1725616;83;21005;-70
2021/07/05 01:43:45;;;;;;;18.85;13.98;;;;;;;14.85;76.16;99979.73;1725260;83;21022;-70
2021/07/05 01:46:11;;;;;;;15.38;13.28;;;;;;;14.81;76.21;99983.06;1725313;83;21792;-70
2021/07/05 01:48:37;;;;;;;14.95;12.43;;;;;;;14.80;76.46;99973.36;1725606;83;21474;-70
2021/07/05 01:51:03;;;;;;;14.00;12.37;;;;;;;14.75;76.16;99972.63;1725356;83;21821;-70
2021/07/05 01:53:29;;;;;;;20.97;11.88;;;;;;;14.75;76.16;99972.63;1725507;83;20999;-71
2021/07/05 01:55:55;;;;;;;15.40;12.35;;;;;;;14.74;76.45;99974.99;1724910;83;20998;-70
2021/07/05 01:58:21;;;;;;;16.02;12.25;;;;;;;14.73;76.51;99976.05;1725503;83;20994;-70
2021/07/05 02:00:48;;;;;;;15.20;12.23;;;;;;;14.66;76.57;99959.62;1725365;83;21006;-70
2021/07/05 02:03:14;;;;;;;21.35;13.90;;;;;;;14.72;76.67;99974.89;1725514;83;21589;-70
2021/07/05 02:05:41;;;;;;;14.53;13.03;;;;;;;14.69;76.76;99955.19;1725501;83;20991;-70
2021/07/05 02:08:07;;;;;;;20.82;14.73;;;;;;;14.69;76.76;99955.19;1725307;83;21097;-70
2021/07/05 02:10:36;;;;;;;17.12;13.90;;;;;;;14.79;76.93;99966.33;1725477;83;21034;-70
2021/07/05 02:13:12;;;;;;;16.42;14.58;;;;;;;14.78;76.80;99972.72;1724980;83;21101;-70
2021/07/05 02:15:39;;;;;;;18.80;14.18;;;;;;;14.74;76.83;99966.94;1725458;83;21129;-70
2021/07/05 02:18:05;;;;;;;17.73;14.43;;;;;;;14.72;76.85;99976.23;1725397;83;21042;-70
2021/07/05 02:20:31;;;;;;;20.55;13.98;;;;;;;14.63;77.03;99972.13;1725202;83;21026;-71
2021/07/05 02:22:57;;;;;;;16.80;13.43;;;;;;;14.63;77.03;99972.13;1725523;83;21050;-70
2021/07/05 02:25:28;;;;;;;17.57;12.47;;;;;;;14.62;76.90;99971.80;1725518;83;21566;-70
2021/07/05 02:27:56;;;;;;;16.67;13.83;;;;;;;14.61;76.94;99968.80;1725308;83;21317;-70
2021/07/05 02:30:25;;;;;;;18.07;13.98;;;;;;;14.50;77.12;99959.52;1723668;83;21074;-71
2021/07/05 02:32:52;;;;;;;18.52;14.20;;;;;;;14.50;77.12;99959.52;1702325;84;22148;-70
2021/07/05 02:35:20;;;;;;;20.72;15.15;;;;;;;14.56;77.06;99978.00;1701584;84;21531;-70
2021/07/05 02:37:46;;;;;;;18.20;14.80;;;;;;;14.44;77.07;99979.13;1702269;84;21066;-70
2021/07/05 02:40:15;;;;;;;18.02;14.40;;;;;;;14.38;77.15;99980.78;1702252;84;21080;-70
2021/07/05 02:42:41;;;;;;;17.12;14.85;;;;;;;14.32;77.14;99978.86;1702178;84;20991;-70
2021/07/05 02:45:15;;;;;;;18.60;13.53;;;;;;;14.29;77.19;99977.93;1701658;84;21062;-70
2021/07/05 02:47:41;;;;;;;17.98;13.05;;;;;;;14.27;77.25;99975.98;1672400;84;20991;-70
2021/07/05 02:50:09;;;;;;;17.50;13.70;;;;;;;14.29;77.33;99978.44;1701880;84;21061;-70
2021/07/05 02:52:35;;;;;;;21.80;13.22;;;;;;;14.29;77.38;99987.32;1701277;84;21135;-70
2021/07/05 02:55:01;;;;;;;22.05;13.43;;;;;;;14.32;77.47;99982.89;1701548;84;21569;-70
2021/07/05 02:57:30;;;;;;;18.70;14.00;;;;;;;14.38;77.53;99979.44;1701684;84;21037;-70
2021/07/05 03:00:07;;;;;;;15.75;14.05;;;;;;;14.46;77.58;99985.92;1701854;84;21531;-70
2021/07/05 03:02:33;;;;;;;17.90;13.90;;;;;;;14.49;77.61;99989.54;1700368;84;21483;-70
2021/07/05 03:05:00;;;;;;;19.15;15.53;;;;;;;14.54;77.69;99988.93;1701467;84;21639;-70
2021/07/05 03:07:27;;;;;;;19.82;16.15;;;;;;;14.54;77.69;99988.93;1701727;84;21055;-70
2021/07/05 03:09:54;;;;;;;18.77;16.10;;;;;;;14.58;77.73;99990.69;1701576;84;21003;-71
2021/07/05 03:12:21;;;;;;;20.62;15.70;;;;;;;14.61;77.72;99984.91;1701583;84;21573;-70
2021/07/05 03:14:47;;;;;;;22.15;15.68;;;;;;;14.56;77.70;99990.91;1701666;84;21066;-70
2021/07/05 03:17:14;;;;;;;22.40;15.90;;;;;;;14.56;77.72;99988.73;1701525;84;21132;-70
2021/07/05 03:19:40;;;;;;;21.70;14.95;;;;;;;14.60;77.77;99985.95;1701690;84;21011;-70
2021/07/05 03:22:06;;;;;;;19.62;14.60;;;;;;;14.70;77.81;99989.05;1701482;84;21525;-70
2021/07/05 03:24:32;;;;;;;17.80;12.88;;;;;;;14.82;77.82;99991.41;1701386;84;21057;-70
2021/07/05 03:26:58;;;;;;;19.37;14.00;;;;;;;14.89;77.84;99985.52;1701620;84;21050;-70
2021/07/05 03:29:24;;;;;;;18.05;14.93;;;;;;;15.01;77.84;99987.89;1701477;83;21144;-70
2021/07/05 03:31:50;;;;;;;20.23;15.10;;;;;;;15.81;78.50;99969.18;1701607;84;20990;-70
2021/07/05 03:34:16;;;;;;;18.00;14.80;;;;;;;15.81;78.50;99969.18;1694487;83;21106;-70
2021/07/05 03:36:42;;;;;;;17.62;15.13;;;;;;;16.65;78.22;99981.81;1700230;84;21019;-70
2021/07/05 03:39:08;;;;;;;18.10;14.80;;;;;;;17.23;77.84;99985.02;1700192;84;21035;-70
2021/07/05 03:41:34;;;;;;;19.00;14.68;;;;;;;17.81;77.49;99989.45;1700176;84;21077;-70
2021/07/05 03:44:00;;;;;;;21.77;14.40;;;;;;;18.37;77.24;99988.26;1699936;84;21406;-71
2021/07/05 03:46:26;;;;;;;27.75;14.33;;;;;;;18.87;76.92;99980.64;1700273;84;21020;-71
2021/07/05 03:48:52;;;;;;;18.27;14.13;;;;;;;19.59;76.46;99987.45;1699751;84;21027;-71
2021/07/05 03:51:18;;;;;;;18.52;13.03;;;;;;;20.30;75.70;99986.97;1700120;84;21051;-71
2021/07/05 03:53:44;;;;;;;17.20;13.70;;;;;;;21.00;74.91;99994.67;1700222;84;21171;-71
2021/07/05 03:56:10;;;;;;;16.00;12.70;;;;;;;21.48;74.15;99988.61;1699614;84;21552;-71
2021/07/05 03:58:36;;;;;;;16.35;14.13;;;;;;;21.83;73.41;99990.95;1699244;84;21567;-71
2021/07/05 04:01:02;;;;;;;14.28;12.78;;;;;;;22.31;72.58;99993.70;1699404;84;21007;-71
2021/07/05 04:03:28;;;;;;;14.83;13.22;;;;;;;22.71;71.68;99995.19;1699232;84;21098;-71
2021/07/05 04:05:55;;;;;;;19.05;14.15;;;;;;;23.10;70.85;99996.59;1699056;84;21676;-71
2021/07/05 04:08:25;;;;;;;14.55;12.98;;;;;;;23.42;70.04;99994.36;1699294;84;21523;-71
2021/07/05 04:10:49;;;;;;;16.25;13.50;;;;;;;23.63;69.13;100000.19;1685279;85;20992;-71
2021/07/05 04:13:15;;;;;;;18.67;14.30;;;;;;;24.07;68.10;99998.72;1690042;84;21032;-71
2021/07/05 04:15:41;;;;;;;16.62;13.15;;;;;;;24.60;67.22;99997.49;1686302;85;21031;-71
2021/07/05 04:18:07;;;;;;;15.68;12.75;;;;;;;25.00;66.17;99993.98;1689959;84;21713;-71
2021/07/05 04:20:33;;;;;;;18.02;13.58;;;;;;;25.43;65.23;99999.92;1686147;85;21027;-71
2021/07/05 04:22:59;;;;;;;14.90;13.38;;;;;;;25.79;64.21;99994.07;1689436;84;21634;-71
2021/07/05 04:25:25;;;;;;;14.98;13.55;;;;;;;26.09;63.23;99998.59;1686267;84;21471;-71
2021/07/05 04:27:53;;;;;;;16.95;13.13;;;;;;;26.37;62.35;99993.53;1689965;84;20924;-71
2021/07/05 04:30:19;;;;;;;15.95;13.53;;;;;;;26.77;61.47;99998.72;1685949;85;21849;-71
2021/07/05 04:32:46;;;;;;;15.88;12.98;;;;;;;26.82;60.12;99993.22;1690116;84;21027;-71
2021/07/05 04:35:17;;;;;;;15.93;13.15;;;;;;;26.70;59.43;99990.02;1686106;85;21027;-71
2021/07/05 04:37:43;;;;;;;14.43;11.97;;;;;;;26.38;59.45;99985.05;1688034;84;21071;-72
2021/07/05 04:40:14;;;;;;;15.03;11.55;;;;;;;26.03;59.56;99993.44;1677526;84;21576;-71
2021/07/05 04:42:40;;;;;;;16.23;10.90;;;;;;;25.79;59.76;99993.28;1701543;84;21864;-72
2021/07/05 04:45:07;;;;;;;11.95;10.70;;;;;;;25.75;59.63;99992.20;1700396;84;21003;-72
2021/07/05 04:47:34;;;;;;;14.53;10.40;;;;;;;25.75;59.65;99985.37;1680717;84;21593;-72
2021/07/05 04:50:00;;;;;;;10.85;9.63;;;;;;;25.82;59.54;99989.98;1691086;84;21383;-72
2021/07/05 04:52:26;;;;;;;14.63;9.38;;;;;;;25.81;59.42;99980.97;1680945;84;21450;-72
2021/07/05 04:54:53;;;;;;;10.13;9.15;;;;;;;25.76;59.20;99986.44;1680722;84;21842;-72
2021/07/05 04:57:19;;;;;;;10.28;9.08;;;;;;;25.54;59.04;99982.44;1691211;84;21096;-72
2021/07/05 04:59:45;;;;;;;15.88;9.10;;;;;;;25.25;58.73;99981.67;1679401;84;21077;-72
2021/07/05 05:02:12;;;;;;;13.65;8.90;;;;;;;25.07;58.63;99980.05;1693861;84;21415;-72
2021/07/05 05:04:38;;;;;;;10.08;8.35;;;;;;;24.99;58.38;99990.97;1676037;84;21068;-72
2021/07/05 05:07:04;;;;;;;13.20;10.45;;;;;;;24.88;57.99;99989.34;1694860;83;21850;-71
2021/07/05 05:09:30;;;;;;;12.85;8.98;;;;;;;25.10;58.01;99992.61;1700361;84;21086;-72
2021/07/05 05:11:56;;;;;;;15.00;11.05;;;;;;;25.43;57.52;99988.99;1699947;84;21019;-71
2021/07/05 05:14:22;;;;;;;17.73;14.20;;;;;;;25.60;57.54;99984.88;1692935;83;21592;-71
2021/07/05 05:16:48;;;;;;;14.63;10.13;;;;;;;25.88;57.36;99987.48;1697494;84;21066;-72
2021/07/05 05:19:15;;;;;;;13.58;8.35;;;;;;;26.12;56.87;99977.52;1695769;84;21901;-70
2021/07/05 05:21:41;;;;;;;8.05;7.25;;;;;;;26.13;56.57;99972.33;1689892;84;21032;-70
2021/07/05 05:24:07;;;;;;;9.00;7.95;;;;;;;26.13;56.36;99975.61;1694774;84;21009;-70
2021/07/05 05:26:33;;;;;;;10.30;7.70;;;;;;;26.03;56.05;99966.92;1692004;84;21064;-70
2021/07/05 05:29:00;;;;;;;8.05;7.25;;;;;;;26.07;55.81;99970.70;1693371;84;21095;-70
2021/07/05 05:31:26;;;;;;;7.80;6.95;;;;;;;26.08;55.49;99972.34;1692008;84;22337;-70
2021/07/05 05:33:53;;;;;;;10.50;7.20;;;;;;;25.82;54.75;99976.32;1694353;84;20993;-70
2021/07/05 05:36:19;;;;;;;12.00;7.40;;;;;;;25.49;54.42;99975.59;1696447;84;21564;-70
2021/07/05 05:38:48;;;;;;;9.20;7.20;;;;;;;25.30;54.16;99973.99;1697634;84;20968;-70
2021/07/05 05:41:13;;;;;;;8.18;7.03;;;;;;;25.32;54.03;99974.55;1678293;84;21024;-70
2021/07/05 05:43:39;;;;;;;9.15;6.60;;;;;;;25.41;53.79;99967.41;1669408;86;21869;-70
2021/07/05 05:46:05;;;;;;;11.57;7.22;;;;;;;25.70;53.68;99967.62;1695545;84;20950;-70
2021/07/05 05:48:31;;;;;;;7.72;6.92;;;;;;;26.20;53.44;99961.92;1696784;84;21050;-70
2021/07/05 05:50:58;;;;;;;9.85;6.65;;;;;;;26.66;53.18;99962.95;1696030;84;21039;-70
2021/07/05 05:53:24;;;;;;;9.68;7.30;;;;;;;26.99;52.80;99968.15;1695965;84;21074;-76
2021/07/05 05:55:50;;;;;;;7.90;7.10;;;;;;;27.08;52.32;99967.25;1692471;84;21892;-70
2021/07/05 05:58:17;;;;;;;11.22;6.92;;;;;;;27.00;51.83;99969.79;1683832;84;21482;-70
2021/07/05 06:00:43;;;;;;;9.98;7.87;;;;;;;26.84;51.51;99967.77;1679853;84;20941;-71
2021/07/05 06:03:09;;;;;;;8.43;6.87;;;;;;;26.84;51.12;99966.39;1679439;84;21036;-70
2021/07/05 06:05:36;;;;;;;9.45;6.40;;;;;;;26.77;50.84;99965.88;1661294;85;21036;-70
2021/07/05 06:08:02;;;;;;;7.70;6.80;;;;;;;26.90;50.64;99973.45;1669984;83;21864;-70
2021/07/05 06:10:28;;;;;;;7.15;5.90;;;;;;;27.01;50.27;99971.43;1677169;84;21030;-70
2021/07/05 06:12:54;;;;;;;6.20;5.60;;;;;;;27.16;50.08;99967.97;1696036;84;21046;-70
2021/07/05 06:15:22;;;;;;;8.18;6.97;;;;;;;27.25;49.82;99975.84;1697451;84;21060;-70
2021/07/05 06:17:50;;;;;;;10.63;5.97;;;;;;;27.24;49.45;99972.01;1694861;83;21052;-70
2021/07/05 06:20:16;;;;;;;10.53;6.22;;;;;;;27.19;49.06;99976.19;1693214;83;21955;-70
2021/07/05 06:22:46;;;;;;;10.03;6.90;;;;;;;27.08;48.76;99972.73;1696052;84;22256;-70
2021/07/05 06:25:10;;;;;;;9.58;6.78;;;;;;;27.06;48.53;99974.11;1697443;84;21020;-70
2021/07/05 06:27:37;;;;;;;7.85;6.92;;;;;;;27.07;48.37;99972.46;1684776;83;21017;-70
2021/07/05 06:30:05;;;;;;;7.28;6.08;;;;;;;27.11;48.13;99973.52;1688658;83;21543;-70
2021/07/05 06:32:31;;;;;;;6.22;5.60;;;;;;;27.17;47.99;99968.80;1697447;84;21822;-70
2021/07/05 06:34:57;;;;;;;8.88;6.20;;;;;;;27.08;47.47;99961.78;1696978;84;20960;-70
2021/07/05 06:37:23;;;;;;;7.78;5.42;;;;;;;27.17;47.26;99959.21;1687184;84;21026;-70
2021/07/05 06:39:49;;;;;;;8.43;5.53;;;;;;;27.26;47.03;99963.79;1680306;84;20968;-70
2021/07/05 06:42:15;;;;;;;7.75;5.40;;;;;;;27.43;46.98;99957.02;1696961;84;21032;-70
2021/07/05 06:44:41;;;;;;;17.17;9.53;;;;;;;27.53;46.78;99958.30;1688641;84;21825;-70
2021/07/05 06:47:07;;;;;;;9.20;5.40;;;;;;;27.55;46.57;99957.47;1669422;84;21446;-70
2021/07/05 06:49:33;;;;;;;8.50;5.58;;;;;;;27.65;46.29;99949.13;1669379;86;21020;-70
2021/07/05 06:52:00;;;;;;;8.63;5.40;;;;;;;27.48;45.90;99950.95;1694379;83;21071;-70
2021/07/05 06:54:26;;;;;;;7.17;5.25;;;;;;;27.48;45.91;99944.68;1683100;84;21028;-70
2021/07/05 06:56:52;;;;;;;8.38;5.67;;;;;;;27.35;45.61;99948.88;1687102;84;21802;-70
2021/07/05 06:59:18;;;;;;;5.95;4.62;;;;;;;27.21;45.48;99949.31;1687054;84;21549;-70
2021/07/05 07:01:45;;;;;;;8.40;6.20;;;;;;;27.08;45.50;99950.83;1679293;83;21023;-70
2021/07/05 07:04:11;;;;;;;17.48;10.30;;;;;;;27.35;45.36;99954.91;1697005;83;21000;-70
2021/07/05 07:06:37;;;;;;;7.72;5.28;;;;;;;27.53;45.19;99964.59;1701294;83;21011;-70
2021/07/05 07:09:04;;;;;;;7.10;6.10;;;;;;;27.58;45.06;99970.03;1697209;83;22516;-70
2021/07/05 07:11:31;;;;;;;7.85;6.47;;;;;;;27.65;45.07;99967.75;1695533;83;21043;-70
2021/07/05 07:13:57;;;;;;;13.28;9.70;;;;;;;27.79;45.01;99968.67;1691336;84;21025;-70
2021/07/05 07:16:26;;;;;;;6.15;5.17;;;;;;;27.89;44.88;99977.31;1690800;84;21031;-70
2021/07/05 07:21:36;;;;;;;5.62;4.92;;;;;;;27.62;44.17;99973.00;1688647;83;21885;-70
2021/07/05 07:24:02;;;;;;;10.18;7.12;;;;;;;27.40;43.84;99969.94;1692928;84;21048;-70
2021/07/05 07:26:28;;;;;;;9.15;4.78;;;;;;;27.49;43.93;99966.84;1693242;84;21040;-70
2021/07/05 07:28:55;;;;;;;6.20;5.60;;;;;;;27.50;43.85;99958.89;1691106;84;21036;-70
2021/07/05 07:31:21;;;;;;;8.53;5.17;;;;;;;27.73;43.90;99959.41;1692049;83;20936;-70
2021/07/05 07:33:48;;;;;;;9.18;5.25;;;;;;;27.88;43.63;99952.37;1692809;84;22676;-70
2021/07/05 07:36:14;;;;;;;6.17;4.78;;;;;;;28.00;43.47;99952.77;1693520;84;21026;-70
2021/07/05 07:38:45;;;;;;;5.25;3.75;;;;;;;28.10;43.29;99952.64;1688248;84;21054;-70
2021/07/05 07:41:08;;;;;;;7.10;4.03;;;;;;;28.18;43.02;99956.07;1694120;84;21423;-70
2021/07/05 07:43:34;;;;;;;5.20;4.70;;;;;;;27.97;42.49;99954.70;1692776;84;20915;-70
2021/07/05 07:46:00;;;;;;;4.30;3.85;;;;;;;27.90;42.37;99957.02;1687780;84;21788;-70
2021/07/05 07:48:26;;;;;;;7.22;4.33;;;;;;;27.87;42.17;99943.88;1685434;84;21255;-70
2021/07/05 07:50:52;;;;;;;10.93;8.08;;;;;;;28.02;42.14;99940.93;1689974;84;21072;-70
2021/07/05 07:53:18;;;;;;;5.33;4.17;;;;;;;28.04;41.91;99941.44;1694108;84;21014;-70
2021/07/05 07:55:44;;;;;;;6.35;4.20;;;;;;;28.22;41.81;99941.20;1692196;84;21010;-70
2021/07/05 07:58:10;;;;;;;5.72;4.37;;;;;;;28.35;41.61;99941.03;1697147;84;21786;-70
2021/07/05 08:00:36;;;;;;;6.45;4.80;;;;;;;28.28;41.45;99940.86;1688031;84;20919;-70
2021/07/05 08:03:02;;;;;;;8.10;6.35;;;;;;;28.02;41.31;99935.45;1685402;84;21039;-70
2021/07/05 08:05:28;;;;;;;8.70;4.97;;;;;;;28.25;41.46;99948.28;1687604;82;21163;-70
2021/07/05 08:07:54;;;;;;;5.45;4.55;;;;;;;28.27;41.47;99950.75;1699484;84;21058;-70
2021/07/05 08:10:20;;;;;;;6.95;5.37;;;;;;;28.14;41.43;99948.75;1683834;84;21836;-70
2021/07/05 08:12:46;;;;;;;6.40;4.35;;;;;;;28.25;41.52;99946.13;1693268;84;21495;-70
2021/07/05 08:15:14;;;;;;;8.58;4.65;;;;;;;28.43;41.60;99948.59;1688271;84;21509;-71
2021/07/05 08:17:45;;;;;;;6.30;5.08;;;;;;;28.41;41.37;99943.95;1690112;84;21002;-72
2021/07/05 08:20:09;;;;;;;6.70;6.05;;;;;;;28.35;41.28;99952.83;1691899;84;21070;-72
2021/07/05 08:22:35;;;;;;;6.05;4.72;;;;;;;28.28;41.17;99938.67;1694647;84;21922;-72
2021/07/05 08:25:04;;;;;;;6.53;4.90;;;;;;;28.14;41.24;99938.61;1689435;82;21513;-71
2021/07/05 08:27:33;;;;;;;6.83;6.08;;;;;;;28.22;41.34;99948.88;1690813;84;21066;-71
2021/07/05 08:29:58;;;;;;;12.43;7.35;;;;;;;28.33;41.17;99945.98;1686717;84;21412;-71
2021/07/05 08:32:24;;;;;;;9.15;5.45;;;;;;;28.49;41.28;99941.91;1696069;84;20968;-71
2021/07/05 08:34:50;;;;;;;5.33;4.60;;;;;;;28.57;41.12;99943.39;1688519;83;21914;-71
2021/07/05 08:37:17;;;;;;;8.80;6.00;;;;;;;28.33;40.67;99941.31;1698605;83;21010;-70
2021/07/05 08:39:43;;;;;;;8.23;5.78;;;;;;;28.37;40.79;99949.77;1701915;84;21034;-71
2021/07/05 08:42:09;;;;;;;8.28;5.17;;;;;;;28.58;40.94;99942.84;1693228;82;21050;-70
2021/07/05 08:44:35;;;;;;;6.47;4.80;;;;;;;28.59;41.12;99941.73;1701402;84;21040;-71
2021/07/05 08:47:02;;;;;;;5.40;4.05;;;;;;;28.57;41.23;99944.77;1695613;84;21835;-70
2021/07/05 08:49:28;;;;;;;11.22;5.70;;;;;;;28.56;41.04;99945.08;1684198;84;20947;-70
2021/07/05 08:51:55;;;;;;;4.92;4.30;;;;;;;28.46;40.92;99941.95;1697793;84;21021;-71
2021/07/05 08:54:21;;;;;;;7.35;5.53;;;;;;;28.41;40.88;99939.83;1695163;84;21106;-70
2021/07/05 08:56:47;;;;;;;4.83;3.98;;;;;;;28.31;40.78;99941.36;1693380;84;21026;-70
2021/07/05 08:59:17;;;;;;;8.03;6.03;;;;;;;28.39;40.74;99945.63;1683913;84;22036;-70
2021/07/05 09:01:44;;;;;;;5.53;4.85;;;;;;;28.28;40.60;99935.92;1665987;84;21007;-70
2021/07/05 09:04:17;;;;;;;5.55;4.92;;;;;;;28.27;40.64;99940.59;1719814;83;21056;-70
2021/07/05 09:07:04;;;;;;;7.90;6.15;;;;;;;28.54;40.74;99936.31;1690164;84;21106;-70
2021/07/05 09:09:31;;;;;;;17.92;9.80;;;;;;;28.71;40.72;99937.42;1687786;83;21055;-71
2021/07/05 09:12:06;;;;;;;10.18;8.20;;;;;;;28.71;40.58;99931.14;1686202;84;22474;-70
2021/07/05 09:14:32;;;;;;;8.58;5.55;;;;;;;28.59;40.47;99932.13;1689832;84;21016;-70
2021/07/05 09:16:58;;;;;;;6.60;4.90;;;;;;;28.52;40.51;99939.93;1715234;81;21415;-71
2021/07/05 09:19:28;;;;;;;6.92;5.17;;;;;;;28.38;40.47;99940.43;1707415;83;21040;-70
2021/07/05 09:22:00;;;;;;;7.55;6.40;;;;;;;28.46;40.59;99931.53;1711271;83;21014;-71
2021/07/05 09:24:35;;;;;;;7.92;4.37;;;;;;;28.67;40.60;99925.99;1689388;84;21940;-71
2021/07/05 09:27:18;;;;;;;11.60;6.65;;;;;;;28.66;40.30;99927.06;1691252;83;21491;-70
2021/07/05 09:29:45;;;;;;;8.13;4.83;;;;;;;28.37;40.26;99929.19;1700598;84;21486;-70
2021/07/05 09:32:15;;;;;;;6.20;4.20;;;;;;;28.47;40.31;99926.28;1687077;84;21055;-70
2021/07/05 09:34:43;;;;;;;7.55;4.70;;;;;;;28.53;40.33;99929.22;1693214;84;21036;-70
2021/07/05 09:37:21;;;;;;;10.43;5.60;;;;;;;28.53;40.25;99929.22;1689929;84;21897;-70
2021/07/05 09:40:08;;;;;;;6.47;4.05;;;;;;;28.45;40.30;99921.66;1674767;85;22204;-70
2021/07/05 09:42:46;;;;;;;5.20;4.70;;;;;;;28.42;40.38;99920.34;1702640;84;21027;-70
2021/07/05 09:45:16;;;;;;;6.78;4.60;;;;;;;28.25;40.30;99923.59;1675967;84;20996;-70
2021/07/05 09:47:42;;;;;;;8.43;4.53;;;;;;;28.08;40.41;99924.69;1671314;85;21106;-70
2021/07/05 09:50:16;;;;;;;7.83;4.95;;;;;;;28.02;40.44;99919.00;1674930;84;21874;-70
2021/07/05 09:52:42;;;;;;;8.60;5.80;;;;;;;27.97;40.50;99916.90;1667828;85;21014;-70
2021/07/05 09:55:14;;;;;;;6.67;5.58;;;;;;;27.96;40.62;99922.93;1674771;85;21112;-70
2021/07/05 09:57:51;;;;;;;7.53;4.60;;;;;;;28.02;40.68;99923.11;1699688;84;21081;-70
2021/07/05 10:00:26;;;;;;;10.08;5.22;;;;;;;28.03;40.84;99916.52;1657932;85;20927;-70
2021/07/05 10:03:04;;;;;;;9.95;5.60;;;;;;;28.10;40.85;99918.37;1675857;85;21797;-70
2021/07/05 10:05:33;;;;;;;6.42;4.33;;;;;;;28.26;40.80;99917.01;1676183;85;21627;-70
2021/07/05 10:08:03;;;;;;;8.85;6.12;;;;;;;28.41;40.76;99920.62;1679988;84;21101;-70
2021/07/05 10:10:30;;;;;;;5.87;4.80;;;;;;;28.53;40.64;99921.81;1704709;83;21066;-70
2021/07/05 10:12:58;;;;;;;11.45;7.70;;;;;;;28.51;40.60;99928.69;1700245;84;21038;-71
2021/07/05 10:15:26;;;;;;;6.22;4.62;;;;;;;28.42;40.51;99933.23;1684383;82;21969;-70
2021/07/05 10:17:53;;;;;;;17.30;12.68;;;;;;;28.43;40.61;99932.13;1695339;83;21010;-70
2021/07/05 10:20:29;;;;;;;6.55;4.95;;;;;;;28.46;40.63;99935.65;1675962;85;20985;-70
2021/07/05 10:22:58;;;;;;;7.75;5.05;;;;;;;28.51;40.64;99935.55;1679767;84;21041;-70
2021/07/05 10:25:27;;;;;;;6.00;4.92;;;;;;;28.37;40.48;99931.94;1684473;84;20981;-70
2021/07/05 10:27:53;;;;;;;;;;;;;;;28.37;40.65;99936.05;1666930;84;21989;-70
2021/07/05 10:30:20;;;;;;;6.40;5.35;;;;;;;28.58;40.74;99930.48;1660724;85;20203;-70
2021/07/05 10:32:47;;;;;;;5.80;5.30;;;;;;;28.55;40.81;99931.09;1676068;85;21061;-70
2021/07/05 10:35:16;;;;;;;10.18;6.33;;;;;;;28.36;41.00;99928.95;1673026;84;21052;-70
2021/07/05 10:38:02;;;;;;;8.68;6.35;;;;;;;28.28;41.10;99931.27;1671229;85;21055;-70
2021/07/05 10:40:47;;;;;;;12.33;5.50;;;;;;;28.26;41.11;99927.98;1681206;84;22481;-70
2021/07/05 10:43:17;;;;;;;10.53;5.58;;;;;;;28.17;41.15;99933.89;1710142;83;21107;-70
2021/07/05 10:45:52;;;;;;;8.65;5.62;;;;;;;28.07;41.26;99931.86;1682052;84;21050;-70
2021/07/05 10:48:41;;;;;;;7.00;5.03;;;;;;;28.00;41.37;99930.83;1699374;84;21053;-71
2021/07/05 10:51:10;;;;;;;6.10;4.75;;;;;;;28.05;41.40;99929.37;1672296;85;21018;-70
2021/07/05 10:53:45;;;;;;;7.37;5.30;;;;;;;28.09;41.33;99928.25;1671871;85;21864;-70
2021/07/05 10:56:31;;;;;;;6.47;4.95;;;;;;;28.12;41.27;99924.36;1672524;84;21010;-70
2021/07/05 10:59:15;;;;;;;8.95;7.37;;;;;;;28.22;41.26;99926.94;1690433;82;21099;-70
2021/07/05 11:01:43;;;;;;;10.60;6.12;;;;;;;28.11;41.31;99922.72;1694772;82;21027;-70
2021/07/05 11:04:30;;;;;;;15.78;8.00;;;;;;;27.94;41.58;99921.02;1700476;84;21065;-70
2021/07/05 11:07:12;;;;;;;10.32;7.28;;;;;;;27.84;41.82;99922.54;1700788;84;21857;-70
2021/07/05 11:09:54;;;;;;;10.10;6.20;;;;;;;27.68;41.98;99925.23;1699837;84;21017;-70
2021/07/05 11:12:32;;;;;;;6.15;5.62;;;;;;;27.61;42.10;99923.41;1686648;84;21058;-70
2021/07/05 11:14:58;;;;;;;6.78;5.12;;;;;;;27.31;42.12;99919.89;1717169;83;21582;-70
2021/07/05 11:17:26;;;;;;;6.80;4.72;;;;;;;27.11;42.14;99917.94;1682015;83;21314;-70
2021/07/05 11:20:15;;;;;;;7.53;5.53;;;;;;;26.88;42.23;99914.09;1664776;86;21839;-70
2021/07/05 11:22:56;;;;;;;6.08;5.08;;;;;;;26.81;42.24;99916.31;1672078;85;21025;-70
2021/07/05 11:25:25;;;;;;;11.28;5.50;;;;;;;26.78;42.25;99918.23;1672333;85;21057;-70
2021/07/05 11:28:01;;;;;;;9.65;5.35;;;;;;;26.84;42.29;99921.23;1672560;84;21021;-70
2021/07/05 11:30:37;;;;;;;7.35;5.65;;;;;;;26.88;42.43;99931.87;1694092;84;21019;-70
2021/07/05 11:33:11;;;;;;;6.85;6.15;;;;;;;26.87;42.64;99937.08;1694200;84;21826;-70
2021/07/05 11:35:58;;;;;;;7.22;6.47;;;;;;;26.78;42.83;99940.13;1698932;83;21098;-70
2021/07/05 11:38:40;;;;;;;5.97;5.47;;;;;;;26.54;43.09;99937.88;1665948;85;22280;-70
2021/07/05 11:41:18;;;;;;;11.12;6.97;;;;;;;26.39;43.41;99942.12;1674786;85;21501;-70
2021/07/05 11:44:04;;;;;;;12.03;6.70;;;;;;;26.25;43.66;99958.32;1701180;84;21522;-70
2021/07/05 11:46:36;;;;;;;8.95;6.72;;;;;;;25.78;44.25;99974.70;1679843;84;21719;-70
2021/07/05 11:49:07;;;;;;;8.85;5.20;;;;;;;25.22;45.10;99974.03;1670188;84;21015;-70
2021/07/05 11:51:38;;;;;;;6.50;5.35;;;;;;;24.76;45.92;99984.69;1694578;84;21014;-70
2021/07/05 11:54:08;;;;;;;6.75;6.00;;;;;;;24.27;46.66;99993.37;1714147;83;21031;-70
2021/07/05 11:56:39;;;;;;;;;;;;;;;23.84;47.44;100000.56;1707312;83;21054;-70
2021/07/05 11:59:28;;;;;;;11.08;6.37;;;;;;;23.46;48.13;100013.17;1697823;83;22241;-70
2021/07/05 12:02:12;;;;;;;7.87;6.00;;;;;;;23.19;48.77;100024.11;1700209;83;20965;-70
2021/07/05 12:04:44;;;;;;;7.53;6.53;;;;;;;22.98;49.55;100027.76;1694574;84;21114;-70
2021/07/05 12:07:15;;;;;;;11.03;6.85;;;;;;;22.86;50.10;100029.31;1694372;84;21388;-70
2021/07/05 12:09:42;;;;;;;12.10;7.05;;;;;;;22.70;50.73;100037.03;1694410;84;21078;-70